CFG95 EDDF-EHRD
Flight info
| Callsign | CFG95 |
|---|---|
| Flight time | N/A |
| Altitude | 24000 |
| Route | MARUN8M/25C MARUN Y152 ARPEG/N0454F340 Z850 HMM L602 RKN RKN3R |
| Aircraft | A20N/M-SDE2E3FGHIRWXY/LB1 |
Departure
| Time | N/A |
|---|---|
| Airport | Frankfurt Main Airport (EDDF) |
Arrival
| Time | 2026-05-07 10:13 |
|---|---|
| Airport | Rotterdam The Hague Airport (EHRD) |
| Time | Latitude | Longitude | Altitude | Speed | Heading |
|---|---|---|---|---|---|
| 2026-05-07 09:26 | 50.43229 | 8.48218 | 23027 ft | 396 kts | 18° |
| 2026-05-07 09:27 | 50.45812 | 8.49632 | 23661 ft | 401 kts | 18° |
| 2026-05-07 09:28 | 50.58677 | 8.55910 | 24002 ft | 403 kts | 16° |
| 2026-05-07 09:28 | 50.61354 | 8.57180 | 23996 ft | 402 kts | 16° |
| 2026-05-07 09:28 | 50.64036 | 8.58462 | 24000 ft | 403 kts | 16° |
| 2026-05-07 09:29 | 50.66714 | 8.59747 | 23992 ft | 403 kts | 16° |
| 2026-05-07 09:29 | 50.69393 | 8.61037 | 23998 ft | 403 kts | 16° |
| 2026-05-07 09:29 | 50.72038 | 8.62313 | 23996 ft | 402 kts | 16° |
| 2026-05-07 09:29 | 50.74710 | 8.63603 | 23995 ft | 402 kts | 17° |
| 2026-05-07 09:30 | 50.77424 | 8.64667 | 23991 ft | 402 kts | 6° |
| 2026-05-07 09:30 | 50.80210 | 8.64622 | 23991 ft | 402 kts | 351° |
| 2026-05-07 09:30 | 50.82882 | 8.63384 | 23989 ft | 402 kts | 335° |
| 2026-05-07 09:30 | 50.85250 | 8.61038 | 23994 ft | 403 kts | 320° |
| 2026-05-07 09:31 | 50.87176 | 8.57820 | 23995 ft | 403 kts | 310° |
| 2026-05-07 09:31 | 50.88984 | 8.54431 | 23996 ft | 403 kts | 310° |
| 2026-05-07 09:31 | 50.90771 | 8.51079 | 23996 ft | 403 kts | 310° |
| 2026-05-07 09:31 | 50.92579 | 8.47687 | 23997 ft | 403 kts | 310° |
| 2026-05-07 09:32 | 50.94387 | 8.44297 | 23999 ft | 403 kts | 310° |
| 2026-05-07 09:32 | 50.96195 | 8.40905 | 23998 ft | 403 kts | 310° |
| 2026-05-07 09:32 | 50.98002 | 8.37511 | 24001 ft | 403 kts | 310° |
| 2026-05-07 09:32 | 50.99825 | 8.34142 | 24004 ft | 403 kts | 314° |
| 2026-05-07 09:33 | 51.01864 | 8.31093 | 24001 ft | 402 kts | 321° |
| 2026-05-07 09:33 | 51.04130 | 8.28488 | 24003 ft | 402 kts | 328° |
| 2026-05-07 09:33 | 51.06522 | 8.26321 | 24003 ft | 401 kts | 331° |
| 2026-05-07 09:33 | 51.08963 | 8.24157 | 24008 ft | 402 kts | 331° |
| 2026-05-07 09:34 | 51.11409 | 8.21972 | 24012 ft | 403 kts | 331° |
| 2026-05-07 09:34 | 51.13848 | 8.19793 | 24009 ft | 402 kts | 331° |
| 2026-05-07 09:34 | 51.16288 | 8.17613 | 24010 ft | 402 kts | 331° |
| 2026-05-07 09:34 | 51.18728 | 8.15433 | 24013 ft | 403 kts | 331° |
| 2026-05-07 09:35 | 51.21171 | 8.13249 | 24015 ft | 403 kts | 330° |
| 2026-05-07 09:35 | 51.23613 | 8.11063 | 24013 ft | 403 kts | 330° |
| 2026-05-07 09:35 | 51.26021 | 8.08906 | 24014 ft | 403 kts | 330° |
| 2026-05-07 09:35 | 51.28464 | 8.06715 | 24016 ft | 403 kts | 330° |
| 2026-05-07 09:36 | 51.30905 | 8.04522 | 24020 ft | 402 kts | 330° |
| 2026-05-07 09:36 | 51.33346 | 8.02327 | 24023 ft | 402 kts | 330° |
| 2026-05-07 09:36 | 51.35782 | 8.00134 | 24025 ft | 402 kts | 330° |
| 2026-05-07 09:36 | 51.38221 | 7.97936 | 24031 ft | 403 kts | 330° |
| 2026-05-07 09:37 | 51.40661 | 7.95734 | 24034 ft | 403 kts | 330° |
| 2026-05-07 09:37 | 51.43069 | 7.93560 | 24034 ft | 403 kts | 330° |
| 2026-05-07 09:37 | 51.45518 | 7.91356 | 24038 ft | 404 kts | 330° |
| 2026-05-07 09:37 | 51.48010 | 7.89290 | 24039 ft | 404 kts | 336° |
| 2026-05-07 09:38 | 51.50651 | 7.87729 | 24040 ft | 405 kts | 343° |
| 2026-05-07 09:38 | 51.53356 | 7.86464 | 24041 ft | 405 kts | 343° |
| 2026-05-07 09:38 | 51.56061 | 7.85170 | 24041 ft | 406 kts | 342° |
| 2026-05-07 09:38 | 51.58762 | 7.83867 | 24042 ft | 406 kts | 342° |
| 2026-05-07 09:39 | 51.61462 | 7.82562 | 24041 ft | 405 kts | 342° |
| 2026-05-07 09:39 | 51.64131 | 7.81273 | 24041 ft | 406 kts | 342° |
| 2026-05-07 09:39 | 51.66834 | 7.79970 | 24039 ft | 406 kts | 342° |
| 2026-05-07 09:39 | 51.69539 | 7.78664 | 24037 ft | 406 kts | 342° |
| 2026-05-07 09:40 | 51.72247 | 7.77356 | 24038 ft | 406 kts | 342° |
| 2026-05-07 09:40 | 51.74956 | 7.76047 | 24034 ft | 407 kts | 342° |
| 2026-05-07 09:40 | 51.77669 | 7.74733 | 24034 ft | 407 kts | 342° |
| 2026-05-07 09:40 | 51.80381 | 7.73419 | 24030 ft | 407 kts | 342° |
| 2026-05-07 09:41 | 51.83035 | 7.71860 | 24030 ft | 406 kts | 332° |
| 2026-05-07 09:41 | 51.85353 | 7.69293 | 24033 ft | 404 kts | 316° |
| 2026-05-07 09:41 | 51.87134 | 7.65874 | 24035 ft | 403 kts | 301° |
| 2026-05-07 09:41 | 51.88411 | 7.61847 | 24038 ft | 402 kts | 295° |
| 2026-05-07 09:42 | 51.89611 | 7.57760 | 24039 ft | 402 kts | 295° |
| 2026-05-07 09:42 | 51.90810 | 7.53668 | 24037 ft | 402 kts | 295° |
| 2026-05-07 09:42 | 51.92013 | 7.49579 | 24039 ft | 402 kts | 295° |
| 2026-05-07 09:42 | 51.93217 | 7.45491 | 24039 ft | 402 kts | 295° |
| 2026-05-07 09:43 | 51.94420 | 7.41407 | 24041 ft | 402 kts | 295° |
| 2026-05-07 09:43 | 51.95625 | 7.37315 | 24039 ft | 402 kts | 295° |
| 2026-05-07 09:43 | 51.96827 | 7.33227 | 24025 ft | 402 kts | 295° |
| 2026-05-07 09:43 | 51.98029 | 7.29132 | 23827 ft | 401 kts | 295° |
| 2026-05-07 09:44 | 51.99224 | 7.25056 | 23587 ft | 399 kts | 295° |
| 2026-05-07 09:44 | 52.00393 | 7.21060 | 23318 ft | 397 kts | 295° |
| 2026-05-07 09:44 | 52.01573 | 7.17019 | 23036 ft | 396 kts | 295° |
| 2026-05-07 09:44 | 52.02735 | 7.12981 | 22733 ft | 394 kts | 291° |
| 2026-05-07 09:45 | 52.03407 | 7.08715 | 22449 ft | 390 kts | 275° |
| 2026-05-07 09:45 | 52.03370 | 7.04326 | 22191 ft | 389 kts | 265° |
| 2026-05-07 09:45 | 52.03102 | 6.99947 | 21917 ft | 389 kts | 264° |
| 2026-05-07 09:45 | 52.02819 | 6.95601 | 21637 ft | 386 kts | 264° |
| 2026-05-07 09:46 | 52.02567 | 6.91285 | 21213 ft | 384 kts | 265° |
| 2026-05-07 09:46 | 52.02347 | 6.86978 | 20826 ft | 381 kts | 265° |
| 2026-05-07 09:46 | 52.02145 | 6.82700 | 20443 ft | 379 kts | 265° |
| 2026-05-07 09:46 | 52.01954 | 6.78494 | 19982 ft | 378 kts | 265° |
| 2026-05-07 09:47 | 52.01763 | 6.74251 | 19464 ft | 375 kts | 265° |
| 2026-05-07 09:47 | 52.01573 | 6.70068 | 18958 ft | 370 kts | 265° |
| 2026-05-07 09:47 | 52.01383 | 6.65922 | 18455 ft | 368 kts | 265° |
| 2026-05-07 09:47 | 52.01192 | 6.61776 | 17827 ft | 367 kts | 265° |
| 2026-05-07 09:48 | 52.00999 | 6.57656 | 17164 ft | 365 kts | 265° |
| 2026-05-07 09:48 | 52.00808 | 6.53596 | 16497 ft | 357 kts | 265° |
| 2026-05-07 09:48 | 52.00619 | 6.49621 | 15850 ft | 349 kts | 265° |
| 2026-05-07 09:48 | 52.00434 | 6.45748 | 15308 ft | 340 kts | 265° |
| 2026-05-07 09:49 | 52.00255 | 6.42023 | 15101 ft | 321 kts | 265° |
| 2026-05-07 09:49 | 52.00085 | 6.38524 | 15052 ft | 320 kts | 265° |
| 2026-05-07 09:49 | 51.99905 | 6.34821 | 15052 ft | 333 kts | 265° |
| 2026-05-07 09:49 | 51.99722 | 6.31091 | 15046 ft | 330 kts | 265° |
| 2026-05-07 09:50 | 51.99538 | 6.27370 | 15051 ft | 333 kts | 265° |
| 2026-05-07 09:50 | 51.99352 | 6.23628 | 15045 ft | 332 kts | 265° |
| 2026-05-07 09:50 | 51.99167 | 6.19914 | 15044 ft | 330 kts | 265° |
| 2026-05-07 09:50 | 51.98981 | 6.16195 | 15047 ft | 331 kts | 265° |
| 2026-05-07 09:51 | 51.98794 | 6.12480 | 15023 ft | 329 kts | 265° |
| 2026-05-07 09:51 | 51.98607 | 6.08787 | 14743 ft | 328 kts | 265° |
| 2026-05-07 09:51 | 51.98419 | 6.05117 | 14308 ft | 326 kts | 265° |
| 2026-05-07 09:51 | 51.98235 | 6.01557 | 14138 ft | 315 kts | 265° |
| 2026-05-07 09:52 | 51.98055 | 5.98092 | 14017 ft | 302 kts | 265° |
| 2026-05-07 09:52 | 51.97881 | 5.94745 | 13690 ft | 296 kts | 265° |
| 2026-05-07 09:52 | 51.97708 | 5.91430 | 13241 ft | 295 kts | 265° |
| 2026-05-07 09:52 | 51.97534 | 5.88128 | 12803 ft | 293 kts | 265° |
| 2026-05-07 09:53 | 51.97360 | 5.84844 | 12354 ft | 292 kts | 265° |
| 2026-05-07 09:53 | 51.97187 | 5.81579 | 11934 ft | 290 kts | 265° |
| 2026-05-07 09:53 | 51.97013 | 5.78323 | 11492 ft | 289 kts | 265° |
| 2026-05-07 09:53 | 51.96840 | 5.75127 | 11078 ft | 288 kts | 265° |
| 2026-05-07 09:54 | 51.96662 | 5.71857 | 10680 ft | 287 kts | 265° |
| 2026-05-07 09:54 | 51.96487 | 5.68643 | 10277 ft | 285 kts | 265° |
| 2026-05-07 09:54 | 51.96316 | 5.65515 | 10095 ft | 282 kts | 265° |
| 2026-05-07 09:54 | 51.96141 | 5.62310 | 10054 ft | 287 kts | 265° |
| 2026-05-07 09:55 | 51.95964 | 5.59096 | 10048 ft | 285 kts | 265° |
| 2026-05-07 09:55 | 51.95786 | 5.55890 | 10048 ft | 286 kts | 265° |
| 2026-05-07 09:55 | 51.95607 | 5.52684 | 10043 ft | 286 kts | 264° |
| 2026-05-07 09:55 | 51.95427 | 5.49492 | 9885 ft | 283 kts | 265° |
| 2026-05-07 09:56 | 51.95247 | 5.46318 | 9492 ft | 283 kts | 265° |
| 2026-05-07 09:56 | 51.95067 | 5.43153 | 9151 ft | 279 kts | 265° |
| 2026-05-07 09:56 | 51.94892 | 5.40080 | 8940 ft | 271 kts | 265° |
| 2026-05-07 09:56 | 51.94722 | 5.37095 | 8572 ft | 269 kts | 265° |
| 2026-05-07 09:57 | 51.94549 | 5.34078 | 8190 ft | 268 kts | 265° |
| 2026-05-07 09:57 | 51.94377 | 5.31077 | 7833 ft | 267 kts | 265° |
| 2026-05-07 09:57 | 51.94204 | 5.28091 | 7474 ft | 266 kts | 265° |
| 2026-05-07 09:57 | 51.94033 | 5.25117 | 7162 ft | 263 kts | 265° |
| 2026-05-07 09:58 | 51.93860 | 5.22162 | 7073 ft | 265 kts | 265° |
| 2026-05-07 09:58 | 51.93689 | 5.19255 | 7051 ft | 253 kts | 265° |
| 2026-05-07 09:58 | 51.93521 | 5.16437 | 7065 ft | 255 kts | 265° |
| 2026-05-07 09:58 | 51.93331 | 5.13569 | 7064 ft | 255 kts | 263° |
| 2026-05-07 09:59 | 51.93086 | 5.10735 | 7069 ft | 254 kts | 262° |
| 2026-05-07 09:59 | 51.92846 | 5.07982 | 7067 ft | 244 kts | 262° |
| 2026-05-07 09:59 | 51.92611 | 5.05270 | 7072 ft | 244 kts | 262° |
| 2026-05-07 09:59 | 51.92374 | 5.02549 | 7073 ft | 244 kts | 262° |
| 2026-05-07 10:00 | 51.92137 | 4.99822 | 7076 ft | 245 kts | 263° |
| 2026-05-07 10:00 | 51.91903 | 4.97097 | 7068 ft | 243 kts | 262° |
| 2026-05-07 10:00 | 51.91671 | 4.94408 | 7067 ft | 236 kts | 262° |
| 2026-05-07 10:00 | 51.91444 | 4.91801 | 7074 ft | 236 kts | 262° |
| 2026-05-07 10:01 | 51.91215 | 4.89130 | 7072 ft | 240 kts | 262° |
| 2026-05-07 10:01 | 51.90986 | 4.86462 | 7081 ft | 239 kts | 262° |
| 2026-05-07 10:01 | 51.90761 | 4.83838 | 7069 ft | 238 kts | 262° |
| 2026-05-07 10:01 | 51.90535 | 4.81208 | 6994 ft | 233 kts | 262° |
| 2026-05-07 10:02 | 51.90313 | 4.78626 | 6762 ft | 231 kts | 262° |
| 2026-05-07 10:02 | 51.90090 | 4.76041 | 6475 ft | 232 kts | 262° |
| 2026-05-07 10:02 | 51.89869 | 4.73461 | 6181 ft | 231 kts | 262° |
| 2026-05-07 10:02 | 51.89645 | 4.70890 | 5892 ft | 230 kts | 262° |
| 2026-05-07 10:03 | 51.89419 | 4.68325 | 5586 ft | 230 kts | 262° |
| 2026-05-07 10:03 | 51.89191 | 4.65763 | 5314 ft | 230 kts | 262° |
| 2026-05-07 10:03 | 51.88962 | 4.63212 | 5032 ft | 229 kts | 262° |
| 2026-05-07 10:03 | 51.88738 | 4.60716 | 4846 ft | 224 kts | 262° |
| 2026-05-07 10:04 | 51.88515 | 4.58260 | 4710 ft | 218 kts | 262° |
| 2026-05-07 10:04 | 51.88293 | 4.55843 | 4521 ft | 217 kts | 262° |
| 2026-05-07 10:04 | 51.88074 | 4.53461 | 4397 ft | 210 kts | 262° |
| 2026-05-07 10:04 | 51.87854 | 4.51186 | 4302 ft | 200 kts | 256° |
| 2026-05-07 10:05 | 51.87313 | 4.49148 | 4069 ft | 196 kts | 243° |
| 2026-05-07 10:05 | 51.86680 | 4.47210 | 3757 ft | 195 kts | 242° |
| 2026-05-07 10:05 | 51.86043 | 4.45272 | 3503 ft | 195 kts | 242° |
| 2026-05-07 10:05 | 51.85410 | 4.43341 | 3212 ft | 195 kts | 242° |
| 2026-05-07 10:06 | 51.84777 | 4.41423 | 3031 ft | 189 kts | 243° |
| 2026-05-07 10:06 | 51.84163 | 4.39573 | 2653 ft | 188 kts | 242° |
| 2026-05-07 10:06 | 51.83555 | 4.37758 | 2178 ft | 183 kts | 242° |
| 2026-05-07 10:06 | 51.82949 | 4.35961 | 2049 ft | 186 kts | 242° |
| 2026-05-07 10:07 | 51.82333 | 4.34127 | 2018 ft | 187 kts | 242° |
| 2026-05-07 10:07 | 51.81692 | 4.32228 | 1996 ft | 193 kts | 242° |
| 2026-05-07 10:07 | 51.81078 | 4.30399 | 2007 ft | 180 kts | 242° |
| 2026-05-07 10:07 | 51.80768 | 4.28461 | 2014 ft | 182 kts | 276° |
| 2026-05-07 10:08 | 51.81273 | 4.26634 | 1986 ft | 177 kts | 315° |
| 2026-05-07 10:08 | 51.82166 | 4.25387 | 1956 ft | 166 kts | 322° |
| 2026-05-07 10:08 | 51.83067 | 4.24233 | 2002 ft | 169 kts | 323° |
| 2026-05-07 10:08 | 51.83999 | 4.23041 | 1989 ft | 170 kts | 323° |
| 2026-05-07 10:09 | 51.84931 | 4.22005 | 1989 ft | 156 kts | 337° |
| 2026-05-07 10:09 | 51.85978 | 4.21812 | 2006 ft | 150 kts | 13° |
| 2026-05-07 10:09 | 51.86919 | 4.22595 | 1982 ft | 156 kts | 40° |
| 2026-05-07 10:09 | 51.87633 | 4.23904 | 1986 ft | 154 kts | 54° |
| 2026-05-07 10:10 | 51.88235 | 4.25373 | 2013 ft | 158 kts | 58° |
| 2026-05-07 10:10 | 51.88817 | 4.26856 | 2008 ft | 154 kts | 56° |
| 2026-05-07 10:10 | 51.89409 | 4.28325 | 2018 ft | 158 kts | 56° |
| 2026-05-07 10:10 | 51.89986 | 4.29767 | 1984 ft | 149 kts | 56° |
| 2026-05-07 10:11 | 51.90539 | 4.31150 | 1806 ft | 143 kts | 55° |
| 2026-05-07 10:11 | 51.91064 | 4.32458 | 1606 ft | 137 kts | 56° |
| 2026-05-07 10:11 | 51.91578 | 4.33742 | 1419 ft | 136 kts | 55° |
| 2026-05-07 10:11 | 51.92091 | 4.35025 | 1235 ft | 136 kts | 56° |
| 2026-05-07 10:12 | 51.92607 | 4.36308 | 1023 ft | 139 kts | 54° |
| 2026-05-07 10:12 | 51.93153 | 4.37647 | 901 ft | 133 kts | 58° |
| 2026-05-07 10:12 | 51.93642 | 4.38888 | 681 ft | 133 kts | 58° |
| 2026-05-07 10:12 | 51.94135 | 4.40152 | 525 ft | 132 kts | 58° |
| 2026-05-07 10:13 | 51.94634 | 4.41396 | 328 ft | 131 kts | 56° |
| 2026-05-07 10:13 | 51.95118 | 4.42610 | 98 ft | 127 kts | 56° |
| 2026-05-07 10:13 | 51.95575 | 4.43747 | -7 ft | 110 kts | 58° |
| 2026-05-07 10:13 | 51.95867 | 4.44466 | -11 ft | 44 kts | 59° |
| 2026-05-07 10:14 | 51.95895 | 4.44695 | -9 ft | 17 kts | 152° |